Grand Haven, Michigan
Current Conditions -  °F | °C
As of 8:55 AM on Thursday 29 Jan 2015 (Local Time) from KMKG Reporting Station
Light Snow Light Snow  
Wind Chill: 31°   Ceiling: 2800
Heat Index: 31°   Visibility: 5mi
Dew Point: 25°   Wind: 0mph
Humidity: 79%   Direction: NA
Pressure: 29.76"   Gusts: NA
Location:  43.06°N, 86.22°W
Report Text: KMKG 291355Z 00000KT 5SM -SN OVC028 M01/M04 A2976 RMK AO2 SNB26 SLP086 P0000 T10061039
Loading
Personal Weather Stations






























Interactive Weather Map New forecast layout! Learn more

10-Day Weather Forecast

Advertisements
Track Severe Weather on mobile